sensor_id;sensor_type;location;lat;lon;timestamp;pressure;altitude;pressure_sealevel;temperature;humidity
62942;BME280;49042;47.318;19.874;2023-03-18T00:00:39;100997.41;;;1.12;65.12
62942;BME280;49042;47.318;19.874;2023-03-18T00:03:41;100995.19;;;1.17;65.30
62942;BME280;49042;47.318;19.874;2023-03-18T00:06:43;100995.75;;;1.13;64.72
62942;BME280;49042;47.318;19.874;2023-03-18T00:09:44;100989.72;;;1.12;64.76
62942;BME280;49042;47.318;19.874;2023-03-18T00:12:46;100991.81;;;1.06;64.39
62942;BME280;49042;47.318;19.874;2023-03-18T00:15:50;100992.63;;;0.94;65.18
62942;BME280;49042;47.318;19.874;2023-03-18T00:18:52;100985.25;;;0.99;64.92
62942;BME280;49042;47.318;19.874;2023-03-18T00:21:54;100991.09;;;0.86;65.95
62942;BME280;49042;47.318;19.874;2023-03-18T00:24:56;100991.47;;;0.58;66.30
62942;BME280;49042;47.318;19.874;2023-03-18T00:27:58;100989.00;;;0.70;65.72
62942;BME280;49042;47.318;19.874;2023-03-18T00:31:05;100985.53;;;0.69;66.23
62942;BME280;49042;47.318;19.874;2023-03-18T00:34:09;100978.63;;;0.58;65.77
62942;BME280;49042;47.318;19.874;2023-03-18T00:37:13;100970.03;;;0.57;65.25
62942;BME280;49042;47.318;19.874;2023-03-18T00:40:20;100964.66;;;0.54;66.09
62942;BME280;49042;47.318;19.874;2023-03-18T00:43:28;100967.41;;;0.35;67.30
62942;BME280;49042;47.318;19.874;2023-03-18T00:46:36;100971.31;;;-0.13;70.58
62942;BME280;49042;47.318;19.874;2023-03-18T00:49:38;100970.91;;;0.25;68.21
62942;BME280;49042;47.318;19.874;2023-03-18T00:52:41;100970.66;;;-0.41;71.33
62942;BME280;49042;47.318;19.874;2023-03-18T00:55:43;100963.31;;;-0.79;73.71
62942;BME280;49042;47.318;19.874;2023-03-18T00:58:49;100954.78;;;-0.27;72.57
62942;BME280;49042;47.318;19.874;2023-03-18T01:01:51;100953.88;;;-0.06;71.34
62942;BME280;49042;47.318;19.874;2023-03-18T01:04:52;100941.19;;;-0.15;71.14
62942;BME280;49042;47.318;19.874;2023-03-18T01:07:54;100943.75;;;-0.05;70.64
62942;BME280;49042;47.318;19.874;2023-03-18T01:10:56;100938.47;;;0.04;69.96
62942;BME280;49042;47.318;19.874;2023-03-18T01:13:58;100937.69;;;0.16;69.57
62942;BME280;49042;47.318;19.874;2023-03-18T01:17:02;100930.16;;;-0.56;71.42
62942;BME280;49042;47.318;19.874;2023-03-18T01:20:05;100931.31;;;-0.42;71.60
62942;BME280;49042;47.318;19.874;2023-03-18T01:23:07;100927.22;;;-0.08;70.10
62942;BME280;49042;47.318;19.874;2023-03-18T01:26:09;100923.88;;;-0.07;69.61
62942;BME280;49042;47.318;19.874;2023-03-18T01:29:11;100932.94;;;0.10;69.19
62942;BME280;49042;47.318;19.874;2023-03-18T01:32:13;100918.13;;;-0.15;70.02
62942;BME280;49042;47.318;19.874;2023-03-18T01:35:15;100928.22;;;-0.06;69.48
62942;BME280;49042;47.318;19.874;2023-03-18T01:38:17;100922.47;;;-0.04;68.98
62942;BME280;49042;47.318;19.874;2023-03-18T01:41:18;100927.44;;;0.05;69.34
62942;BME280;49042;47.318;19.874;2023-03-18T01:44:22;100921.06;;;-0.42;70.54
62942;BME280;49042;47.318;19.874;2023-03-18T01:47:25;100924.78;;;-0.38;70.94
62942;BME280;49042;47.318;19.874;2023-03-18T01:50:30;100919.53;;;-0.50;72.27
62942;BME280;49042;47.318;19.874;2023-03-18T01:53:42;100918.22;;;-0.87;73.36
62942;BME280;49042;47.318;19.874;2023-03-18T01:56:47;100929.25;;;-1.28;76.99
62942;BME280;49042;47.318;19.874;2023-03-18T01:59:50;100920.31;;;-1.13;76.27
62942;BME280;49042;47.318;19.874;2023-03-18T02:02:53;100922.31;;;-0.89;75.68
62942;BME280;49042;47.318;19.874;2023-03-18T02:05:55;100923.69;;;-1.44;77.81
62942;BME280;49042;47.318;19.874;2023-03-18T02:08:57;100924.25;;;-1.27;77.75
62942;BME280;49042;47.318;19.874;2023-03-18T02:12:01;100927.31;;;-1.31;77.70
62942;BME280;49042;47.318;19.874;2023-03-18T02:15:07;100918.34;;;-1.66;79.58
62942;BME280;49042;47.318;19.874;2023-03-18T02:18:16;100922.13;;;-2.01;80.68
62942;BME280;49042;47.318;19.874;2023-03-18T02:21:27;100925.41;;;-2.41;83.99
62942;BME280;49042;47.318;19.874;2023-03-18T02:27:53;100921.50;;;-2.47;85.48
62942;BME280;49042;47.318;19.874;2023-03-18T02:30:59;100932.44;;;-2.67;86.05
62942;BME280;49042;47.318;19.874;2023-03-18T02:34:04;100924.69;;;-2.01;83.94
62942;BME280;49042;47.318;19.874;2023-03-18T02:37:07;100919.16;;;-1.76;81.93
62942;BME280;49042;47.318;19.874;2023-03-18T02:40:14;100921.75;;;-1.46;80.05
62942;BME280;49042;47.318;19.874;2023-03-18T02:43:27;100917.00;;;-1.52;79.80
62942;BME280;49042;47.318;19.874;2023-03-18T02:46:40;100918.06;;;-1.40;79.14
62942;BME280;49042;47.318;19.874;2023-03-18T02:49:48;100917.88;;;-1.22;78.78
62942;BME280;49042;47.318;19.874;2023-03-18T02:52:50;100910.31;;;-1.20;78.59
62942;BME280;49042;47.318;19.874;2023-03-18T02:55:52;100915.19;;;-1.13;78.31
62942;BME280;49042;47.318;19.874;2023-03-18T02:58:54;100908.69;;;-0.99;77.33
62942;BME280;49042;47.318;19.874;2023-03-18T03:01:56;100911.41;;;-0.97;77.17
62942;BME280;49042;47.318;19.874;2023-03-18T03:04:58;100908.78;;;-1.28;78.02
62942;BME280;49042;47.318;19.874;2023-03-18T03:08:00;100912.03;;;-1.10;77.47
62942;BME280;49042;47.318;19.874;2023-03-18T03:11:02;100906.91;;;-1.10;77.40
62942;BME280;49042;47.318;19.874;2023-03-18T03:14:04;100910.25;;;-1.01;77.06
62942;BME280;49042;47.318;19.874;2023-03-18T03:17:06;100906.44;;;-0.95;76.72
62942;BME280;49042;47.318;19.874;2023-03-18T03:20:09;100900.66;;;-0.93;76.65
62942;BME280;49042;47.318;19.874;2023-03-18T03:23:13;100898.31;;;-1.11;76.99
62942;BME280;49042;47.318;19.874;2023-03-18T03:26:16;100906.28;;;-0.97;76.21
62942;BME280;49042;47.318;19.874;2023-03-18T03:29:18;100904.87;;;-1.04;76.53
62942;BME280;49042;47.318;19.874;2023-03-18T03:32:21;100908.69;;;-0.99;76.24
62942;BME280;49042;47.318;19.874;2023-03-18T03:35:22;100911.66;;;-1.04;76.63
62942;BME280;49042;47.318;19.874;2023-03-18T03:38:25;100907.16;;;-1.17;77.42
62942;BME280;49042;47.318;19.874;2023-03-18T03:41:26;100912.81;;;-1.01;76.58
62942;BME280;49042;47.318;19.874;2023-03-18T03:44:28;100911.66;;;-1.04;77.17
62942;BME280;49042;47.318;19.874;2023-03-18T03:47:30;100918.34;;;-0.96;77.07
62942;BME280;49042;47.318;19.874;2023-03-18T03:50:33;100917.69;;;-0.93;77.17
62942;BME280;49042;47.318;19.874;2023-03-18T03:53:35;100917.97;;;-1.31;79.26
62942;BME280;49042;47.318;19.874;2023-03-18T03:56:37;100926.84;;;-1.16;78.58
62942;BME280;49042;47.318;19.874;2023-03-18T03:59:39;100928.63;;;-1.15;78.41
62942;BME280;49042;47.318;19.874;2023-03-18T04:02:41;100931.69;;;-1.20;78.80
62942;BME280;49042;47.318;19.874;2023-03-18T04:05:44;100929.34;;;-0.97;78.09
62942;BME280;49042;47.318;19.874;2023-03-18T04:08:45;100931.25;;;-0.94;78.33
62942;BME280;49042;47.318;19.874;2023-03-18T04:11:47;100932.94;;;-0.84;77.42
62942;BME280;49042;47.318;19.874;2023-03-18T04:14:49;100936.66;;;-1.32;80.17
62942;BME280;49042;47.318;19.874;2023-03-18T04:17:52;100926.59;;;-1.09;78.91
62942;BME280;49042;47.318;19.874;2023-03-18T04:20:53;100935.81;;;-1.11;79.46
62942;BME280;49042;47.318;19.874;2023-03-18T04:23:55;100933.06;;;-0.93;79.16
62942;BME280;49042;47.318;19.874;2023-03-18T04:26:57;100935.47;;;-0.95;78.90
62942;BME280;49042;47.318;19.874;2023-03-18T04:29:59;100937.69;;;-0.89;79.02
62942;BME280;49042;47.318;19.874;2023-03-18T04:33:01;100932.19;;;-0.83;78.93
62942;BME280;49042;47.318;19.874;2023-03-18T04:36:04;100931.53;;;-0.81;79.16
62942;BME280;49042;47.318;19.874;2023-03-18T04:39:06;100941.53;;;-0.84;79.43
62942;BME280;49042;47.318;19.874;2023-03-18T04:42:09;100936.28;;;-0.85;80.55
62942;BME280;49042;47.318;19.874;2023-03-18T04:45:11;100944.75;;;-0.76;80.63
62942;BME280;49042;47.318;19.874;2023-03-18T04:48:13;100941.66;;;-0.82;81.01
62942;BME280;49042;47.318;19.874;2023-03-18T04:51:15;100949.81;;;-0.97;82.09
62942;BME280;49042;47.318;19.874;2023-03-18T04:54:16;100947.88;;;-1.10;83.39
62942;BME280;49042;47.318;19.874;2023-03-18T04:57:18;100953.16;;;-0.88;82.10
62942;BME280;49042;47.318;19.874;2023-03-18T05:00:20;100953.97;;;-0.78;81.18
62942;BME280;49042;47.318;19.874;2023-03-18T05:03:22;100954.59;;;-0.70;80.62
62942;BME280;49042;47.318;19.874;2023-03-18T05:06:27;100951.94;;;-0.61;79.37
62942;BME280;49042;47.318;19.874;2023-03-18T05:09:30;100957.66;;;-0.95;80.06
62942;BME280;49042;47.318;19.874;2023-03-18T05:12:32;100960.66;;;-0.59;79.29
62942;BME280;49042;47.318;19.874;2023-03-18T05:15:34;100959.50;;;-0.63;79.13
62942;BME280;49042;47.318;19.874;2023-03-18T05:18:37;100961.06;;;-0.34;77.92
62942;BME280;49042;47.318;19.874;2023-03-18T05:21:39;100966.59;;;-0.29;77.67
62942;BME280;49042;47.318;19.874;2023-03-18T05:24:42;100970.13;;;0.05;76.11
62942;BME280;49042;47.318;19.874;2023-03-18T05:27:46;100982.72;;;0.02;75.45
62942;BME280;49042;47.318;19.874;2023-03-18T05:30:48;100974.50;;;0.16;74.57
62942;BME280;49042;47.318;19.874;2023-03-18T05:33:50;100980.09;;;0.33;74.08
62942;BME280;49042;47.318;19.874;2023-03-18T05:36:52;100990.59;;;0.47;73.59
62942;BME280;49042;47.318;19.874;2023-03-18T05:39:53;100991.22;;;0.55;73.03
62942;BME280;49042;47.318;19.874;2023-03-18T05:42:55;100987.41;;;0.82;72.27
62942;BME280;49042;47.318;19.874;2023-03-18T05:45:57;100989.00;;;0.70;72.50
62942;BME280;49042;47.318;19.874;2023-03-18T05:48:59;100996.37;;;0.88;72.06
62942;BME280;49042;47.318;19.874;2023-03-18T05:52:01;100999.84;;;0.88;71.30
62942;BME280;49042;47.318;19.874;2023-03-18T05:55:03;101004.03;;;0.98;71.65
62942;BME280;49042;47.318;19.874;2023-03-18T05:58:06;101008.09;;;0.84;72.25
62942;BME280;49042;47.318;19.874;2023-03-18T06:01:08;101003.13;;;0.98;71.20
62942;BME280;49042;47.318;19.874;2023-03-18T06:04:09;101003.75;;;1.28;70.08
62942;BME280;49042;47.318;19.874;2023-03-18T06:07:11;101002.00;;;1.39;70.25
62942;BME280;49042;47.318;19.874;2023-03-18T06:10:14;101004.13;;;1.90;69.02
62942;BME280;49042;47.318;19.874;2023-03-18T06:13:16;101003.72;;;2.32;67.04
62942;BME280;49042;47.318;19.874;2023-03-18T06:16:18;101006.19;;;2.66;65.91
62942;BME280;49042;47.318;19.874;2023-03-18T06:19:20;100995.69;;;3.77;60.83
62942;BME280;49042;47.318;19.874;2023-03-18T06:22:22;101003.97;;;4.51;57.97
62942;BME280;49042;47.318;19.874;2023-03-18T06:25:24;101009.72;;;4.74;55.26
62942;BME280;49042;47.318;19.874;2023-03-18T06:28:26;101014.66;;;5.70;51.64
62942;BME280;49042;47.318;19.874;2023-03-18T06:31:28;101013.56;;;6.40;49.08
62942;BME280;49042;47.318;19.874;2023-03-18T06:34:30;101018.84;;;6.57;47.98
62942;BME280;49042;47.318;19.874;2023-03-18T06:37:32;101019.59;;;8.21;44.58
62942;BME280;49042;47.318;19.874;2023-03-18T06:40:34;101023.50;;;8.48;42.78
62942;BME280;49042;47.318;19.874;2023-03-18T06:43:36;101033.22;;;9.25;40.61
62942;BME280;49042;47.318;19.874;2023-03-18T06:46:38;101025.47;;;9.87;39.33
62942;BME280;49042;47.318;19.874;2023-03-18T06:49:44;101025.12;;;11.08;37.66
62942;BME280;49042;47.318;19.874;2023-03-18T06:52:46;101023.09;;;12.22;34.74
62942;BME280;49042;47.318;19.874;2023-03-18T06:55:48;101026.34;;;13.29;33.47
62942;BME280;49042;47.318;19.874;2023-03-18T06:58:50;101020.81;;;14.88;31.14
62942;BME280;49042;47.318;19.874;2023-03-18T07:01:52;101018.88;;;16.66;28.02
62942;BME280;49042;47.318;19.874;2023-03-18T07:04:54;101017.34;;;15.75;29.26
62942;BME280;49042;47.318;19.874;2023-03-18T07:07:55;101025.53;;;15.92;28.54
62942;BME280;49042;47.318;19.874;2023-03-18T07:10:57;101033.37;;;18.67;25.16
62942;BME280;49042;47.318;19.874;2023-03-18T07:13:59;101030.84;;;17.06;26.89
62942;BME280;49042;47.318;19.874;2023-03-18T07:17:00;101025.81;;;19.30;23.96
62942;BME280;49042;47.318;19.874;2023-03-18T07:20:03;101019.69;;;19.48;23.90
62942;BME280;49042;47.318;19.874;2023-03-18T07:23:05;101018.91;;;19.94;23.31
62942;BME280;49042;47.318;19.874;2023-03-18T07:26:09;101031.00;;;16.05;28.89
62942;BME280;49042;47.318;19.874;2023-03-18T07:29:12;101040.31;;;14.61;31.22
62942;BME280;49042;47.318;19.874;2023-03-18T07:32:14;101044.25;;;12.30;33.76
62942;BME280;49042;47.318;19.874;2023-03-18T07:35:16;101048.31;;;8.06;43.58
62942;BME280;49042;47.318;19.874;2023-03-18T07:38:17;101049.12;;;9.13;42.18
62942;BME280;49042;47.318;19.874;2023-03-18T07:41:19;101050.28;;;7.76;44.69
62942;BME280;49042;47.318;19.874;2023-03-18T07:44:21;101063.22;;;6.79;49.06
62942;BME280;49042;47.318;19.874;2023-03-18T07:47:22;101057.31;;;6.05;50.76
62942;BME280;49042;47.318;19.874;2023-03-18T07:50:25;101064.47;;;5.09;56.98
62942;BME280;49042;47.318;19.874;2023-03-18T07:53:28;101061.09;;;6.26;53.20
62942;BME280;49042;47.318;19.874;2023-03-18T07:56:30;101072.84;;;5.90;55.59
62942;BME280;49042;47.318;19.874;2023-03-18T07:59:32;101063.84;;;5.70;56.40
62942;BME280;49042;47.318;19.874;2023-03-18T08:02:34;101060.66;;;7.76;49.85
62942;BME280;49042;47.318;19.874;2023-03-18T08:05:36;101059.81;;;11.76;38.77
62942;BME280;49042;47.318;19.874;2023-03-18T08:08:39;101056.91;;;16.30;31.14
62942;BME280;49042;47.318;19.874;2023-03-18T08:11:40;101055.00;;;17.38;27.73
62942;BME280;49042;47.318;19.874;2023-03-18T08:14:42;101054.25;;;20.18;23.97
62942;BME280;49042;47.318;19.874;2023-03-18T08:17:44;101057.97;;;23.20;20.79
62942;BME280;49042;47.318;19.874;2023-03-18T08:20:46;101062.59;;;27.16;17.29
62942;BME280;49042;47.318;19.874;2023-03-18T08:23:49;101054.84;;;27.67;16.15
62942;BME280;49042;47.318;19.874;2023-03-18T08:26:52;101050.56;;;28.72;15.36
62942;BME280;49042;47.318;19.874;2023-03-18T08:29:53;101050.09;;;27.47;15.44
62942;BME280;49042;47.318;19.874;2023-03-18T08:32:55;101055.34;;;28.37;15.59
62942;BME280;49042;47.318;19.874;2023-03-18T08:35:57;101056.66;;;27.96;15.04
62942;BME280;49042;47.318;19.874;2023-03-18T08:39:00;101049.78;;;28.16;14.99
62942;BME280;49042;47.318;19.874;2023-03-18T08:42:03;101060.66;;;26.57;16.11
62942;BME280;49042;47.318;19.874;2023-03-18T08:45:05;101050.44;;;28.75;14.84
62942;BME280;49042;47.318;19.874;2023-03-18T08:48:07;101044.09;;;29.50;14.81
62942;BME280;49042;47.318;19.874;2023-03-18T08:51:09;101043.56;;;28.41;15.44
62942;BME280;49042;47.318;19.874;2023-03-18T08:54:11;101046.56;;;28.31;15.73
62942;BME280;49042;47.318;19.874;2023-03-18T08:57:14;101045.50;;;31.30;13.58
62942;BME280;49042;47.318;19.874;2023-03-18T09:00:16;101032.31;;;32.18;12.84
62942;BME280;49042;47.318;19.874;2023-03-18T09:03:18;101045.03;;;27.37;14.67
62942;BME280;49042;47.318;19.874;2023-03-18T09:06:20;101042.53;;;30.56;12.94
62942;BME280;49042;47.318;19.874;2023-03-18T09:09:23;101045.78;;;32.54;12.03
62942;BME280;49042;47.318;19.874;2023-03-18T09:12:38;101048.94;;;30.94;13.03
62942;BME280;49042;47.318;19.874;2023-03-18T09:15:40;101044.81;;;33.07;11.43
62942;BME280;49042;47.318;19.874;2023-03-18T09:18:42;101047.37;;;32.76;11.76
62942;BME280;49042;47.318;19.874;2023-03-18T09:21:46;101049.91;;;27.82;13.94
62942;BME280;49042;47.318;19.874;2023-03-18T09:24:48;101042.22;;;27.42;14.63
62942;BME280;49042;47.318;19.874;2023-03-18T09:27:50;101040.97;;;27.54;14.58
62942;BME280;49042;47.318;19.874;2023-03-18T09:30:52;101040.94;;;25.47;16.93
62942;BME280;49042;47.318;19.874;2023-03-18T09:33:54;101037.34;;;29.16;14.15
62942;BME280;49042;47.318;19.874;2023-03-18T09:36:56;101042.50;;;25.16;16.39
62942;BME280;49042;47.318;19.874;2023-03-18T09:39:58;101033.87;;;30.68;13.57
62942;BME280;49042;47.318;19.874;2023-03-18T09:56:17;101025.84;;;28.62;14.27
62942;BME280;49042;47.318;19.874;2023-03-18T09:59:28;101021.34;;;25.48;16.03
62942;BME280;49042;47.318;19.874;2023-03-18T10:02:36;101020.72;;;25.34;17.05
62942;BME280;49042;47.318;19.874;2023-03-18T10:05:54;101016.34;;;23.82;17.58
62942;BME280;49042;47.318;19.874;2023-03-18T10:12:34;101023.37;;;16.19;26.46
62942;BME280;49042;47.318;19.874;2023-03-18T10:15:43;101036.47;;;14.84;28.41
62942;BME280;49042;47.318;19.874;2023-03-18T10:18:46;101025.59;;;13.63;32.42
62942;BME280;49042;47.318;19.874;2023-03-18T10:25:25;101022.47;;;12.57;33.75
62942;BME280;49042;47.318;19.874;2023-03-18T10:35:28;101007.09;;;11.88;36.30
62942;BME280;49042;47.318;19.874;2023-03-18T10:38:35;101013.78;;;11.30;37.25
62942;BME280;49042;47.318;19.874;2023-03-18T10:41:38;101010.69;;;11.18;37.77
62942;BME280;49042;47.318;19.874;2023-03-18T10:44:41;101001.84;;;11.37;38.03
62942;BME280;49042;47.318;19.874;2023-03-18T10:47:46;101003.16;;;11.75;38.61
62942;BME280;49042;47.318;19.874;2023-03-18T10:51:08;101001.31;;;11.23;38.99
62942;BME280;49042;47.318;19.874;2023-03-18T10:57:25;100983.25;;;11.78;39.73
62942;BME280;49042;47.318;19.874;2023-03-18T11:00:29;100978.66;;;11.71;39.09
62942;BME280;49042;47.318;19.874;2023-03-18T11:03:43;100980.34;;;11.20;39.92
62942;BME280;49042;47.318;19.874;2023-03-18T11:06:51;100972.53;;;11.46;40.89
62942;BME280;49042;47.318;19.874;2023-03-18T11:10:15;100975.94;;;11.19;39.58
62942;BME280;49042;47.318;19.874;2023-03-18T11:13:19;100966.28;;;11.41;40.27
62942;BME280;49042;47.318;19.874;2023-03-18T11:16:27;100966.28;;;11.41;40.82
62942;BME280;49042;47.318;19.874;2023-03-18T11:19:37;100949.22;;;11.51;40.93
62942;BME280;49042;47.318;19.874;2023-03-18T11:22:43;100954.31;;;11.23;41.33
62942;BME280;49042;47.318;19.874;2023-03-18T11:25:46;100952.16;;;11.35;41.43
62942;BME280;49042;47.318;19.874;2023-03-18T11:28:57;100938.56;;;11.44;41.53
62942;BME280;49042;47.318;19.874;2023-03-18T11:32:00;100934.81;;;11.62;40.97
62942;BME280;49042;47.318;19.874;2023-03-18T11:35:05;100930.47;;;11.38;42.31
62942;BME280;49042;47.318;19.874;2023-03-18T11:38:35;100923.12;;;12.05;40.86
62942;BME280;49042;47.318;19.874;2023-03-18T11:41:38;100925.97;;;12.13;40.18
62942;BME280;49042;47.318;19.874;2023-03-18T11:44:40;100923.81;;;11.99;41.27
62942;BME280;49042;47.318;19.874;2023-03-18T11:47:43;100914.69;;;11.86;41.22
62942;BME280;49042;47.318;19.874;2023-03-18T11:50:53;100921.06;;;11.94;40.68
62942;BME280;49042;47.318;19.874;2023-03-18T12:23:47;100897.03;;;12.34;38.63
62942;BME280;49042;47.318;19.874;2023-03-18T12:33:42;100894.13;;;11.97;37.70
62942;BME280;49042;47.318;19.874;2023-03-18T12:37:08;100882.31;;;12.36;38.27
62942;BME280;49042;47.318;19.874;2023-03-18T12:46:43;100882.81;;;11.98;40.04
62942;BME280;49042;47.318;19.874;2023-03-18T12:49:56;100883.03;;;12.04;38.92
62942;BME280;49042;47.318;19.874;2023-03-18T12:53:19;100883.22;;;12.10;40.08
62942;BME280;49042;47.318;19.874;2023-03-18T12:56:26;100889.06;;;12.29;38.57
62942;BME280;49042;47.318;19.874;2023-03-18T12:59:44;100882.41;;;12.13;37.47
62942;BME280;49042;47.318;19.874;2023-03-18T13:03:52;100882.94;;;12.29;39.62
62942;BME280;49042;47.318;19.874;2023-03-18T13:06:36;100874.50;;;12.69;38.02
62942;BME280;49042;47.318;19.874;2023-03-18T13:09:46;100882.75;;;12.81;37.91
62942;BME280;49042;47.318;19.874;2023-03-18T13:12:58;100878.00;;;12.38;39.07
62942;BME280;49042;47.318;19.874;2023-03-18T13:16:03;100886.06;;;12.17;38.60
62942;BME280;49042;47.318;19.874;2023-03-18T13:19:07;100878.75;;;12.63;39.26
62942;BME280;49042;47.318;19.874;2023-03-18T13:22:44;100870.63;;;12.54;38.58
62942;BME280;49042;47.318;19.874;2023-03-18T13:45:35;100860.09;;;20.17;24.90
62942;BME280;49042;47.318;19.874;2023-03-18T13:48:39;100855.50;;;20.65;24.11
62942;BME280;49042;47.318;19.874;2023-03-18T13:51:48;100854.75;;;20.31;23.88
62942;BME280;49042;47.318;19.874;2023-03-18T13:54:50;100839.19;;;22.32;22.97
62942;BME280;49042;47.318;19.874;2023-03-18T14:04:31;100836.19;;;18.87;25.70
62942;BME280;49042;47.318;19.874;2023-03-18T14:07:46;100835.16;;;18.48;26.17
62942;BME280;49042;47.318;19.874;2023-03-18T14:14:38;100826.59;;;19.41;25.53
62942;BME280;49042;47.318;19.874;2023-03-18T14:17:54;100822.12;;;16.57;28.32
62942;BME280;49042;47.318;19.874;2023-03-18T14:20:59;100823.81;;;14.87;31.37
62942;BME280;49042;47.318;19.874;2023-03-18T14:27:22;100819.34;;;12.93;35.00
62942;BME280;49042;47.318;19.874;2023-03-18T14:33:50;100815.56;;;12.51;36.05
62942;BME280;49042;47.318;19.874;2023-03-18T14:39:58;100815.22;;;12.38;37.19
62942;BME280;49042;47.318;19.874;2023-03-18T14:43:07;100812.44;;;12.34;37.43
62942;BME280;49042;47.318;19.874;2023-03-18T14:46:22;100812.84;;;12.17;37.67
62942;BME280;49042;47.318;19.874;2023-03-18T14:52:38;100812.38;;;12.03;38.66
62942;BME280;49042;47.318;19.874;2023-03-18T14:55:42;100804.72;;;12.09;39.11
62942;BME280;49042;47.318;19.874;2023-03-18T14:58:46;100802.16;;;12.10;38.00
62942;BME280;49042;47.318;19.874;2023-03-18T15:01:48;100796.75;;;12.04;38.69
62942;BME280;49042;47.318;19.874;2023-03-18T15:04:53;100798.41;;;12.02;38.30
62942;BME280;49042;47.318;19.874;2023-03-18T15:07:55;100795.69;;;11.97;38.55
62942;BME280;49042;47.318;19.874;2023-03-18T15:10:57;100799.13;;;11.96;38.26
62942;BME280;49042;47.318;19.874;2023-03-18T15:14:00;100793.91;;;11.96;38.56
62942;BME280;49042;47.318;19.874;2023-03-18T15:17:05;100803.03;;;11.82;38.87
62942;BME280;49042;47.318;19.874;2023-03-18T15:20:12;100796.81;;;11.78;39.11
62942;BME280;49042;47.318;19.874;2023-03-18T15:23:15;100787.19;;;12.05;38.93
62942;BME280;49042;47.318;19.874;2023-03-18T15:26:28;100781.12;;;12.35;38.20
62942;BME280;49042;47.318;19.874;2023-03-18T15:29:32;100774.59;;;12.84;36.99
62942;BME280;49042;47.318;19.874;2023-03-18T15:32:46;100775.72;;;14.01;35.25
62942;BME280;49042;47.318;19.874;2023-03-18T15:35:55;100782.25;;;13.80;35.04
62942;BME280;49042;47.318;19.874;2023-03-18T15:38:58;100787.19;;;12.98;36.81
62942;BME280;49042;47.318;19.874;2023-03-18T15:42:01;100786.78;;;12.51;38.00
62942;BME280;49042;47.318;19.874;2023-03-18T15:45:04;100791.50;;;12.32;38.05
62942;BME280;49042;47.318;19.874;2023-03-18T15:48:14;100792.28;;;12.02;39.00
62942;BME280;49042;47.318;19.874;2023-03-18T15:54:27;100794.66;;;11.64;39.67
62942;BME280;49042;47.318;19.874;2023-03-18T15:57:51;100792.38;;;11.48;40.54
62942;BME280;49042;47.318;19.874;2023-03-18T16:00:55;100795.56;;;11.39;40.88
62942;BME280;49042;47.318;19.874;2023-03-18T16:03:58;100795.25;;;11.29;41.30
62942;BME280;49042;47.318;19.874;2023-03-18T16:07:00;100798.03;;;11.34;41.20
62942;BME280;49042;47.318;19.874;2023-03-18T16:10:03;100800.78;;;11.12;41.54
62942;BME280;49042;47.318;19.874;2023-03-18T16:13:05;100804.69;;;10.99;41.80
62942;BME280;49042;47.318;19.874;2023-03-18T16:16:15;100810.37;;;10.87;42.63
62942;BME280;49042;47.318;19.874;2023-03-18T16:19:22;100801.16;;;10.73;42.73
62942;BME280;49042;47.318;19.874;2023-03-18T16:22:30;100810.66;;;10.70;42.79
62942;BME280;49042;47.318;19.874;2023-03-18T16:25:34;100805.19;;;10.64;42.77
62942;BME280;49042;47.318;19.874;2023-03-18T16:28:36;100813.44;;;10.52;43.42
62942;BME280;49042;47.318;19.874;2023-03-18T16:31:38;100816.44;;;10.40;43.66
62942;BME280;49042;47.318;19.874;2023-03-18T16:34:40;100817.03;;;10.33;44.32
62942;BME280;49042;47.318;19.874;2023-03-18T16:37:43;100825.72;;;10.32;44.21
62942;BME280;49042;47.318;19.874;2023-03-18T16:40:48;100828.53;;;10.15;44.94
62942;BME280;49042;47.318;19.874;2023-03-18T16:43:50;100829.78;;;10.02;45.52
62942;BME280;49042;47.318;19.874;2023-03-18T16:46:54;100831.38;;;9.98;45.58
62942;BME280;49042;47.318;19.874;2023-03-18T16:49:56;100833.53;;;9.87;46.12
62942;BME280;49042;47.318;19.874;2023-03-18T16:52:58;100846.00;;;9.73;46.75
62942;BME280;49042;47.318;19.874;2023-03-18T16:56:13;100838.19;;;9.73;46.66
62942;BME280;49042;47.318;19.874;2023-03-18T16:59:17;100839.34;;;9.80;46.56
62942;BME280;49042;47.318;19.874;2023-03-18T17:02:33;100841.38;;;9.66;47.01
62942;BME280;49042;47.318;19.874;2023-03-18T17:05:35;100847.47;;;9.45;48.06
62942;BME280;49042;47.318;19.874;2023-03-18T17:08:37;100851.91;;;9.47;47.98
62942;BME280;49042;47.318;19.874;2023-03-18T17:11:40;100847.34;;;9.41;48.41
62942;BME280;49042;47.318;19.874;2023-03-18T17:14:54;100846.56;;;9.44;48.45
62942;BME280;49042;47.318;19.874;2023-03-18T17:17:56;100849.69;;;9.15;49.38
62942;BME280;49042;47.318;19.874;2023-03-18T17:21:00;100857.13;;;9.26;49.39
62942;BME280;49042;47.318;19.874;2023-03-18T17:24:04;100843.06;;;9.02;50.17
62942;BME280;49042;47.318;19.874;2023-03-18T17:27:55;100850.06;;;9.03;50.36
62942;BME280;49042;47.318;19.874;2023-03-18T17:30:38;100851.25;;;8.90;51.13
62942;BME280;49042;47.318;19.874;2023-03-18T17:33:42;100846.59;;;8.83;51.47
62942;BME280;49042;47.318;19.874;2023-03-18T17:36:44;100843.22;;;8.85;51.59
62942;BME280;49042;47.318;19.874;2023-03-18T17:39:46;100855.03;;;8.59;52.63
62942;BME280;49042;47.318;19.874;2023-03-18T17:42:50;100848.84;;;8.56;53.34
62942;BME280;49042;47.318;19.874;2023-03-18T17:45:53;100851.94;;;8.48;53.76
62942;BME280;49042;47.318;19.874;2023-03-18T17:48:57;100847.00;;;8.16;55.71
62942;BME280;49042;47.318;19.874;2023-03-18T17:52:00;100849.34;;;7.92;57.21
62942;BME280;49042;47.318;19.874;2023-03-18T17:55:14;100859.09;;;8.15;56.17
62942;BME280;49042;47.318;19.874;2023-03-18T17:58:18;100858.78;;;7.72;57.96